< < Back
Terminal Aerodrome Forecast


Current Version              Previous Versions:   1  2  3  4  5  6  7  8  9  

Terminal Aerodrome Forecast

136
FTUS44 KBMX 252339
TAFMGM
TAF
KMGM 252339Z 2600/2624 11002KT P6SM FEW080
     FM261500 10004KT P6SM FEW070 FEW120
     FM262100 19004KT P6SM SCT050 SCT100=



Latest METAR

817
SAUS80 KWBC 262200 RRA
MTRMGM
METAR KMGM 262153Z 12009KT 10SM FEW049 30/19 A2995 RMK AO2 LTG DSNT SE
AND S SLP137 T03000189


USA.gov is the U.S. government's official web portal to all federal, state and local government web resources and services.